Terminal Aerodrome Forecast
Issued by NWS

Home | Current Version | Previous Version | Text Only | Print | Product List | Glossary On
Versions: 1 2 3 4 5 6 7 8 9 10 11 12 13 14 15 16 17 18 19 20 21 22 23 24 25 26 27 28 29 30 31 32 33 34 35 36 37 38 39 40 41 42
000
FTUS44 KBMX 191233 AAA
TAFTCL
TAF AMD
KTCL 191233Z 1913/2012 19003KT P6SM OVC015
      TEMPO 1913/1914 BKN008
     FM191500 21006KT P6SM BKN025
     FM191800 24009KT P6SM BKN050
     FM192300 23007KT P6SM VCTS BKN050CB
     FM200100 19005KT P6SM SCT050
     FM200900 32015G25KT 2SM TSRA BKN025CB=

USA.gov is the U.S. government's official web portal to all federal, state and local government web resources and services.